createdAt,value
2022-12-04T17:30:47.693Z,83.10
2022-12-04T17:33:15.437Z,84.00
2022-12-04T17:35:44.708Z,84.00
2022-12-04T17:38:11.648Z,83.80
2022-12-04T17:40:38.450Z,83.50
2022-12-04T17:43:07.556Z,83.30
2022-12-04T17:45:38.918Z,83.00
2022-12-04T17:48:05.968Z,82.80
2022-12-04T17:50:32.855Z,82.60
2022-12-04T17:53:02.427Z,82.50
2022-12-04T17:55:29.309Z,82.20
2022-12-04T17:58:01.136Z,82.00
2022-12-04T18:00:30.515Z,81.80
2022-12-04T18:03:04.571Z,81.60
2022-12-04T18:05:31.550Z,81.90
2022-12-04T18:07:58.648Z,81.40
2022-12-04T18:10:28.153Z,81.20
2022-12-04T18:12:55.075Z,81.20
2022-12-04T18:15:21.914Z,81.00
2022-12-04T18:17:51.090Z,80.80
2022-12-04T18:20:20.485Z,80.90
2022-12-04T18:22:47.314Z,80.70
2022-12-04T18:25:17.028Z,80.60
2022-12-04T18:27:44.110Z,80.60
2022-12-04T18:30:16.719Z,80.50
2022-12-04T18:32:48.162Z,80.50
2022-12-04T18:35:15.340Z,80.60
2022-12-04T18:37:44.156Z,80.30
2022-12-04T18:40:14.663Z,80.30
2022-12-04T18:42:44.009Z,80.40
2022-12-04T18:45:15.789Z,80.40
2022-12-04T18:47:44.881Z,80.10
2022-12-04T18:50:12.128Z,80.10
2022-12-04T18:52:41.235Z,80.10
2022-12-04T18:55:11.136Z,80.20
2022-12-04T18:57:40.427Z,80.20
2022-12-04T19:00:12.410Z,80.30
2022-12-04T19:02:42.455Z,80.20
2022-12-04T19:05:12.694Z,80.20
2022-12-04T19:07:39.628Z,80.10
2022-12-04T19:10:11.489Z,80.20
2022-12-04T19:12:38.865Z,80.10
2022-12-04T19:15:08.721Z,79.90
2022-12-04T19:17:40.436Z,79.80
2022-12-04T19:20:08.378Z,79.70
2022-12-04T19:22:40.303Z,79.70
2022-12-04T19:25:12.463Z,79.60
2022-12-04T19:27:41.547Z,79.70
2022-12-04T19:30:09.203Z,79.70
2022-12-04T19:32:41.164Z,79.50
2022-12-04T19:35:13.191Z,79.50
2022-12-04T19:37:42.165Z,79.50
2022-12-04T19:40:15.004Z,79.50
2022-12-04T19:42:49.664Z,79.50
2022-12-04T19:45:17.746Z,79.50
2022-12-04T19:47:44.648Z,79.50
2022-12-04T19:50:14.238Z,79.30
2022-12-04T19:52:41.283Z,79.40
2022-12-04T19:55:09.059Z,79.50
2022-12-04T19:57:36.228Z,79.40
2022-12-04T20:00:08.912Z,79.20
2022-12-04T20:02:41.303Z,79.10
2022-12-04T20:05:08.662Z,79.20
2022-12-04T20:07:40.458Z,79.30
2022-12-04T20:10:12.873Z,79.40
2022-12-04T20:12:44.807Z,79.40
2022-12-04T20:15:14.194Z,79.30
2022-12-04T20:17:43.550Z,79.30
2022-12-04T20:20:10.632Z,79.40
2022-12-04T20:22:37.709Z,79.30
2022-12-04T20:25:07.234Z,79.20
2022-12-04T20:27:36.192Z,79.20
2022-12-04T20:30:06.581Z,79.10
2022-12-04T20:32:38.835Z,79.20
2022-12-04T20:35:11.235Z,79.00
2022-12-04T20:37:40.455Z,78.90
2022-12-04T20:40:08.108Z,78.90
2022-12-04T20:42:38.182Z,79.00
2022-12-04T20:45:07.953Z,79.00
2022-12-04T20:47:36.172Z,79.00
2022-12-04T20:50:09.129Z,79.00
2022-12-04T20:52:40.443Z,78.80
2022-12-04T20:55:08.869Z,79.00
2022-12-04T20:57:38.357Z,78.80
2022-12-04T21:00:08.579Z,78.80
2022-12-04T21:02:37.924Z,78.80
2022-12-04T21:05:05.307Z,78.70
2022-12-04T21:07:32.286Z,78.60
2022-12-04T21:10:04.077Z,79.20
2022-12-04T21:12:52.195Z,78.60
2022-12-04T21:15:37.448Z,78.50
2022-12-04T21:18:04.830Z,78.60
2022-12-04T21:20:33.862Z,78.50
2022-12-04T21:23:00.925Z,78.40
2022-12-04T21:25:28.025Z,78.40
2022-12-04T21:27:55.140Z,78.40
2022-12-04T21:30:26.521Z,78.60
2022-12-04T21:32:53.419Z,78.40
2022-12-04T21:35:22.425Z,78.30
2022-12-04T21:37:49.430Z,78.40
2022-12-04T21:40:18.888Z,78.40
2022-12-04T21:42:51.055Z,78.40
2022-12-04T21:45:18.180Z,78.40
2022-12-04T21:47:47.558Z,78.30
2022-12-04T21:50:16.849Z,78.10
2022-12-04T21:52:48.441Z,78.70
2022-12-04T21:55:17.424Z,78.10
2022-12-04T21:57:44.196Z,78.10
2022-12-04T22:00:14.446Z,78.20
2022-12-04T22:02:43.575Z,78.10
2022-12-04T22:05:12.689Z,78.00
2022-12-04T22:07:39.646Z,78.00
2022-12-04T22:10:10.961Z,78.00
2022-12-04T22:12:55.679Z,78.00
2022-12-04T22:15:31.861Z,78.00
2022-12-04T22:18:01.336Z,77.90
2022-12-04T22:20:28.354Z,78.00
2022-12-04T22:22:55.221Z,78.00
2022-12-04T22:25:22.345Z,78.00
2022-12-04T22:27:52.294Z,78.00
2022-12-04T22:30:22.379Z,78.00
2022-12-04T22:32:52.367Z,78.00
2022-12-04T22:35:19.620Z,78.00
2022-12-04T22:37:46.950Z,78.00
2022-12-04T22:40:15.618Z,78.00
2022-12-04T22:42:43.690Z,78.00
2022-12-04T22:45:12.951Z,78.10
2022-12-04T22:47:42.376Z,78.00
2022-12-04T22:50:10.865Z,78.00
2022-12-04T22:52:38.578Z,78.00
2022-12-04T22:55:08.105Z,78.00
2022-12-04T22:57:39.946Z,78.10
2022-12-04T23:00:09.237Z,78.10
2022-12-04T23:02:36.178Z,78.10
2022-12-04T23:05:03.717Z,78.10
2022-12-04T23:07:32.882Z,78.10
2022-12-04T23:10:02.198Z,78.10
2022-12-04T23:12:29.664Z,78.20
2022-12-04T23:14:56.550Z,78.30
2022-12-04T23:17:25.863Z,78.40
2022-12-04T23:19:52.760Z,78.30
2022-12-04T23:22:21.729Z,78.40
2022-12-04T23:24:53.221Z,78.40
2022-12-04T23:27:22.302Z,78.40
2022-12-04T23:29:56.376Z,78.40
2022-12-04T23:32:28.021Z,78.40
2022-12-04T23:34:55.040Z,78.40
2022-12-04T23:37:24.001Z,78.40
2022-12-04T23:39:52.879Z,78.40
2022-12-04T23:42:22.041Z,78.40
2022-12-04T23:44:49.030Z,78.40
2022-12-04T23:47:16.025Z,78.40
2022-12-04T23:49:45.578Z,78.30
2022-12-04T23:52:15.619Z,78.20
2022-12-04T23:54:45.016Z,78.20
2022-12-04T23:57:16.593Z,78.30
2022-12-04T23:59:45.737Z,78.40
